Time;durP1;ratioP1;P1;durP2;ratioP2;P2;SDS_P1;SDS_P2;PMS_P1;PMS_P2;Temp;Humidity;BMP_temperature;BMP_pressure;BME280_temperature;BME280_humidity;BME280_pressure;Samples;Min_cycle;Max_cycle;Signal;HPM_P1;HPM_P2
2021/05/24 00:00:31;;;;;;;6.47;1.33;;;14.60;99.90;;;;;;5072201;28;20059;-73
2021/05/24 00:02:58;;;;;;;3.05;0.93;;;14.60;99.90;;;;;;5061357;28;20474;-73
2021/05/24 00:05:29;;;;;;;2.45;0.70;;;14.60;99.90;;;;;;5070734;28;20548;-73
2021/05/24 00:07:56;;;;;;;1.90;0.87;;;14.60;99.90;;;;;;5064878;28;20041;-73
2021/05/24 00:10:29;;;;;;;5.80;0.70;;;14.60;99.90;;;;;;5062676;28;20083;-72
2021/05/24 00:13:00;;;;;;;3.13;0.98;;;14.60;99.90;;;;;;5064035;28;20059;-72
2021/05/24 00:15:31;;;;;;;4.40;0.82;;;14.60;99.90;;;;;;5060434;28;20024;-73
2021/05/24 00:17:57;;;;;;;2.53;0.90;;;14.70;99.90;;;;;;5067604;28;20068;-71
2021/05/24 00:20:30;;;;;;;1.95;0.80;;;14.70;99.90;;;;;;5058972;28;20056;-72
2021/05/24 00:22:56;;;;;;;3.33;0.93;;;14.70;99.90;;;;;;5061036;28;20047;-72
2021/05/24 00:25:22;;;;;;;4.78;0.90;;;14.60;99.90;;;;;;5066122;28;20478;-73
2021/05/24 00:27:48;;;;;;;2.88;0.90;;;14.60;99.90;;;;;;5065789;28;20033;-72
2021/05/24 00:30:15;;;;;;;8.07;0.70;;;14.60;99.90;;;;;;5069648;28;20032;-72
2021/05/24 00:32:41;;;;;;;2.97;0.80;;;14.60;99.90;;;;;;5060609;28;20424;-72
2021/05/24 00:35:08;;;;;;;3.13;0.85;;;14.50;99.90;;;;;;5069376;28;20029;-72
2021/05/24 00:37:33;;;;;;;3.03;1.02;;;14.50;99.90;;;;;;5063030;28;20024;-73
2021/05/24 00:39:59;;;;;;;3.63;0.75;;;14.50;99.90;;;;;;5060587;28;20509;-73
2021/05/24 00:42:25;;;;;;;2.30;0.68;;;14.50;99.90;;;;;;5064930;28;20032;-74
2021/05/24 00:44:51;;;;;;;3.53;0.88;;;14.50;99.90;;;;;;5067779;28;20606;-72
2021/05/24 00:47:17;;;;;;;1.55;0.75;;;14.40;99.90;;;;;;5061184;28;20024;-72
2021/05/24 00:49:44;;;;;;;1.80;0.70;;;14.40;99.90;;;;;;5062234;28;20033;-71
2021/05/24 00:52:11;;;;;;;3.53;0.82;;;14.50;99.90;;;;;;5055713;28;20021;-72
2021/05/24 00:54:36;;;;;;;2.50;0.80;;;14.50;99.90;;;;;;5060048;28;20054;-73
2021/05/24 00:57:04;;;;;;;2.38;0.57;;;14.50;99.90;;;;;;5066763;28;20056;-71
2021/05/24 00:59:29;;;;;;;2.88;0.80;;;14.40;99.90;;;;;;5061888;28;20025;-72
2021/05/24 01:01:55;;;;;;;2.45;0.68;;;14.50;99.90;;;;;;5063195;28;20028;-72
2021/05/24 01:04:21;;;;;;;1.95;0.70;;;14.50;99.90;;;;;;5057189;28;20045;-72
2021/05/24 01:06:48;;;;;;;3.35;0.82;;;14.50;99.90;;;;;;5064083;28;20067;-73
2021/05/24 01:09:17;;;;;;;2.33;0.68;;;14.50;99.90;;;;;;5061073;28;20032;-72
2021/05/24 01:11:43;;;;;;;1.35;0.52;;;14.50;99.90;;;;;;5054192;28;20082;-73
2021/05/24 01:14:09;;;;;;;0.93;0.70;;;14.50;99.90;;;;;;5059167;28;20475;-72
2021/05/24 01:16:35;;;;;;;3.42;0.90;;;14.50;99.90;;;;;;5063401;28;20021;-73
2021/05/24 01:19:01;;;;;;;1.45;0.50;;;14.50;99.90;;;;;;5054869;28;20398;-72
2021/05/24 01:21:26;;;;;;;6.30;0.93;;;14.50;99.90;;;;;;5059833;28;20021;-74
2021/05/24 01:23:52;;;;;;;2.58;0.70;;;14.60;99.90;;;;;;5055803;28;20497;-72
2021/05/24 01:26:19;;;;;;;3.35;0.52;;;14.50;99.90;;;;;;5056413;28;20017;-73
2021/05/24 01:28:46;;;;;;;1.33;0.63;;;14.50;99.90;;;;;;5062661;28;20112;-73
2021/05/24 01:31:13;;;;;;;2.55;0.70;;;14.60;99.90;;;;;;5057130;28;20063;-73
2021/05/24 01:33:39;;;;;;;0.98;0.50;;;14.50;99.90;;;;;;5053452;28;20394;-73
2021/05/24 01:36:07;;;;;;;2.60;0.70;;;14.50;99.90;;;;;;5062760;28;20021;-74
2021/05/24 01:38:36;;;;;;;2.97;0.60;;;14.50;99.90;;;;;;5062348;28;20016;-73
2021/05/24 01:41:02;;;;;;;1.70;0.60;;;14.50;99.90;;;;;;5062347;28;20058;-74
2021/05/24 01:43:29;;;;;;;1.70;0.60;;;14.60;99.90;;;;;;5055783;28;20029;-73
2021/05/24 01:45:55;;;;;;;1.95;0.90;;;14.50;99.90;;;;;;5067182;28;20032;-73
2021/05/24 01:48:22;;;;;;;2.70;0.57;;;14.50;99.90;;;;;;5062579;28;20036;-72
2021/05/24 01:50:47;;;;;;;4.70;0.90;;;14.60;99.90;;;;;;5059045;28;20033;-73
2021/05/24 01:53:13;;;;;;;1.73;0.50;;;14.60;99.90;;;;;;5059109;28;20029;-74
2021/05/24 01:55:39;;;;;;;2.90;0.50;;;14.60;99.90;;;;;;5060722;28;20036;-72
2021/05/24 01:58:06;;;;;;;1.85;0.80;;;14.50;99.90;;;;;;5063068;28;20021;-73
2021/05/24 02:00:32;;;;;;;3.20;0.70;;;14.50;99.90;;;;;;5059334;28;20048;-74
2021/05/24 02:02:58;;;;;;;1.25;0.60;;;14.60;99.90;;;;;;5056986;28;20017;-73
2021/05/24 02:05:26;;;;;;;2.65;0.60;;;14.60;99.90;;;;;;5062407;28;20380;-73
2021/05/24 02:07:52;;;;;;;2.42;0.47;;;14.60;99.90;;;;;;5061883;28;20025;-74
2021/05/24 02:10:34;;;;;;;0.47;0.45;;;14.60;99.90;;;;;;5064575;28;20044;-73
2021/05/24 02:13:01;;;;;;;2.08;0.50;;;14.50;99.90;;;;;;5053510;28;20497;-74
2021/05/24 02:15:30;;;;;;;1.63;0.80;;;14.50;99.90;;;;;;5063308;28;20028;-73
2021/05/24 02:17:57;;;;;;;1.90;0.40;;;14.60;99.90;;;;;;5058470;28;20512;-73
2021/05/24 02:20:24;;;;;;;2.72;0.70;;;14.60;99.90;;;;;;5056325;28;20064;-74
2021/05/24 02:22:52;;;;;;;2.28;0.70;;;14.70;99.90;;;;;;5059327;28;20017;-74
2021/05/24 02:25:17;;;;;;;2.45;0.70;;;14.60;99.90;;;;;;5059021;28;20090;-73
2021/05/24 02:27:43;;;;;;;1.92;0.73;;;14.60;99.90;;;;;;5056719;28;20025;-73
2021/05/24 02:30:12;;;;;;;2.95;0.57;;;14.60;99.90;;;;;;5061443;28;20033;-74
2021/05/24 02:32:38;;;;;;;1.52;0.55;;;14.60;99.90;;;;;;5058230;28;20465;-74
2021/05/24 02:35:05;;;;;;;1.77;0.60;;;14.70;99.90;;;;;;5061791;28;20511;-73
2021/05/24 02:37:31;;;;;;;1.77;0.80;;;14.70;99.90;;;;;;5060449;28;20112;-73
2021/05/24 02:39:57;;;;;;;3.83;0.68;;;14.70;99.90;;;;;;5062432;28;20099;-72
2021/05/24 02:42:23;;;;;;;3.70;1.20;;;14.70;99.90;;;;;;5055010;28;20029;-73
2021/05/24 02:44:48;;;;;;;1.75;0.65;;;14.70;99.90;;;;;;5060095;28;20085;-73
2021/05/24 02:47:14;;;;;;;3.85;1.17;;;14.60;99.90;;;;;;5060547;28;20119;-74
2021/05/24 02:49:44;;;;;;;1.67;0.70;;;14.60;99.90;;;;;;5060403;28;20060;-72
2021/05/24 02:52:10;;;;;;;1.77;0.50;;;14.60;99.90;;;;;;5059547;28;20034;-73
2021/05/24 02:54:36;;;;;;;1.75;0.43;;;14.60;99.90;;;;;;5060929;28;20099;-74
2021/05/24 02:57:02;;;;;;;1.08;0.60;;;14.60;99.90;;;;;;5056364;28;20454;-74
2021/05/24 02:59:28;;;;;;;8.90;0.80;;;14.60;99.90;;;;;;5054536;28;20029;-73
2021/05/24 03:01:54;;;;;;;5.53;1.33;;;14.60;99.90;;;;;;5059378;28;20031;-73
2021/05/24 03:04:26;;;;;;;2.78;1.45;;;14.60;99.90;;;;;;5060094;28;20012;-74
2021/05/24 03:06:51;;;;;;;0.93;0.57;;;14.70;99.90;;;;;;5060234;28;20013;-74
2021/05/24 03:09:17;;;;;;;1.77;0.50;;;14.70;99.90;;;;;;5053607;28;20519;-73
2021/05/24 03:11:43;;;;;;;1.65;0.63;;;14.60;99.90;;;;;;5055386;28;20031;-74
2021/05/24 03:14:08;;;;;;;2.20;0.60;;;14.60;99.90;;;;;;5062539;28;20473;-74
2021/05/24 03:16:34;;;;;;;1.17;0.52;;;14.70;99.90;;;;;;5059170;28;20016;-74
2021/05/24 03:18:59;;;;;;;1.42;0.60;;;14.70;99.90;;;;;;5052626;28;20483;-73
2021/05/24 03:21:25;;;;;;;1.02;0.57;;;14.60;99.90;;;;;;5062647;28;20052;-74
2021/05/24 03:23:51;;;;;;;0.90;0.50;;;14.60;99.90;;;;;;5063811;28;20025;-74
2021/05/24 03:26:16;;;;;;;1.92;0.60;;;14.60;99.90;;;;;;5057090;28;21315;-74
2021/05/24 03:28:44;;;;;;;1.63;0.60;;;14.60;99.90;;;;;;5053929;28;20041;-74
2021/05/24 03:31:11;;;;;;;2.42;0.90;;;14.60;99.90;;;;;;5053777;28;20017;-74
2021/05/24 03:33:37;;;;;;;2.25;0.88;;;14.60;99.90;;;;;;5061834;28;20029;-75
2021/05/24 03:36:03;;;;;;;2.00;0.80;;;14.60;99.90;;;;;;5068306;28;20025;-74
2021/05/24 03:38:29;;;;;;;1.33;0.43;;;14.60;99.90;;;;;;5058972;28;20036;-74
2021/05/24 03:40:55;;;;;;;2.10;0.70;;;14.60;99.90;;;;;;5061360;28;20094;-74
2021/05/24 03:43:22;;;;;;;4.13;0.90;;;14.60;99.90;;;;;;5061987;28;20075;-73
2021/05/24 03:45:48;;;;;;;4.03;0.85;;;14.60;99.90;;;;;;5057506;28;20483;-74
2021/05/24 03:48:13;;;;;;;1.52;0.50;;;14.60;99.90;;;;;;5061965;28;20045;-74
2021/05/24 03:50:39;;;;;;;1.73;0.43;;;14.60;99.90;;;;;;5060428;28;20074;-73
2021/05/24 03:53:05;;;;;;;1.67;0.50;;;14.60;99.90;;;;;;5058894;28;20024;-74
2021/05/24 03:55:31;;;;;;;5.45;0.95;;;14.70;99.90;;;;;;5066566;28;20017;-74
2021/05/24 03:57:56;;;;;;;3.05;0.75;;;14.60;99.90;;;;;;5059230;28;20020;-74
2021/05/24 04:00:22;;;;;;;3.35;0.80;;;14.60;99.90;;;;;;5065773;28;20031;-74
2021/05/24 04:02:48;;;;;;;1.65;0.65;;;14.70;99.90;;;;;;5065889;28;20103;-72
2021/05/24 04:05:19;;;;;;;1.92;0.55;;;14.60;99.90;;;;;;5066645;28;20024;-74
2021/05/24 04:07:54;;;;;;;2.95;0.82;;;14.70;99.90;;;;;;5060333;28;20024;-74
2021/05/24 04:10:22;;;;;;;2.67;0.90;;;14.70;99.90;;;;;;5069891;28;20029;-74
2021/05/24 04:12:48;;;;;;;3.67;0.85;;;14.60;99.90;;;;;;5055165;28;20036;-73
2021/05/24 04:15:15;;;;;;;3.53;0.60;;;14.60;99.90;;;;;;5058909;28;20025;-74
2021/05/24 04:17:42;;;;;;;2.53;0.80;;;14.60;99.90;;;;;;5058716;28;20033;-74
2021/05/24 04:20:11;;;;;;;2.83;1.00;;;14.60;99.90;;;;;;5059177;28;20071;-73
2021/05/24 04:22:37;;;;;;;4.55;0.93;;;14.60;99.90;;;;;;5059999;28;20025;-74
2021/05/24 04:25:03;;;;;;;1.63;0.55;;;14.60;99.90;;;;;;5064099;28;20594;-74
2021/05/24 04:27:29;;;;;;;4.38;0.73;;;14.60;99.90;;;;;;5063246;28;20489;-74
2021/05/24 04:29:55;;;;;;;1.52;0.60;;;14.60;99.90;;;;;;5059611;28;20037;-74
2021/05/24 04:32:20;;;;;;;3.17;0.68;;;14.60;99.90;;;;;;5060784;28;20056;-74
2021/05/24 04:34:46;;;;;;;3.17;0.73;;;14.60;99.90;;;;;;5061905;28;20128;-74
2021/05/24 04:37:11;;;;;;;5.80;0.90;;;14.60;99.90;;;;;;5065672;28;20025;-74
2021/05/24 04:39:41;;;;;;;4.22;1.00;;;14.60;99.90;;;;;;5058478;28;20457;-73
2021/05/24 04:42:07;;;;;;;3.47;1.02;;;14.60;99.90;;;;;;5061077;28;20033;-74
2021/05/24 04:44:33;;;;;;;4.45;0.75;;;14.50;99.90;;;;;;5065656;28;20029;-74
2021/05/24 04:46:58;;;;;;;3.13;1.00;;;14.50;99.90;;;;;;5062866;28;20031;-74
2021/05/24 04:49:24;;;;;;;3.03;0.60;;;14.40;99.90;;;;;;5061457;28;20045;-74
2021/05/24 04:51:50;;;;;;;3.72;0.88;;;14.50;99.90;;;;;;5059349;28;20492;-74
2021/05/24 04:54:16;;;;;;;3.30;1.25;;;14.60;99.90;;;;;;5056027;28;20039;-74
2021/05/24 04:56:41;;;;;;;1.25;0.63;;;14.70;99.90;;;;;;5061754;28;20056;-73
2021/05/24 04:59:07;;;;;;;1.27;0.77;;;14.60;99.90;;;;;;5061399;28;20051;-73
2021/05/24 05:01:33;;;;;;;4.10;1.10;;;14.60;99.90;;;;;;5062291;28;20112;-73
2021/05/24 05:03:58;;;;;;;2.55;0.70;;;14.70;99.90;;;;;;5065868;28;20543;-72
2021/05/24 05:06:24;;;;;;;5.10;0.95;;;14.80;99.90;;;;;;5063594;28;20020;-73
2021/05/24 05:08:49;;;;;;;2.90;0.60;;;14.70;99.90;;;;;;5054106;28;20044;-73
2021/05/24 05:11:15;;;;;;;2.05;1.30;;;14.70;99.90;;;;;;5058277;28;20059;-72
2021/05/24 05:13:42;;;;;;;3.42;0.70;;;14.70;99.90;;;;;;5062418;28;20021;-73
2021/05/24 05:16:08;;;;;;;2.13;0.98;;;14.80;99.90;;;;;;5060943;28;20029;-73
2021/05/24 05:18:33;;;;;;;7.28;0.68;;;14.80;99.90;;;;;;5058298;28;20032;-72
2021/05/24 05:20:59;;;;;;;2.97;0.65;;;14.70;99.90;;;;;;5062046;28;20541;-74
2021/05/24 05:23:25;;;;;;;3.63;0.80;;;14.70;99.90;;;;;;5061655;28;20052;-72
2021/05/24 05:25:51;;;;;;;4.80;0.85;;;14.70;99.90;;;;;;5057420;28;20373;-73
2021/05/24 05:28:16;;;;;;;2.00;0.68;;;14.70;99.90;;;;;;5064252;28;20496;-72
2021/05/24 05:30:42;;;;;;;2.08;0.60;;;14.80;99.90;;;;;;5059669;28;20070;-72
2021/05/24 05:33:08;;;;;;;4.72;0.70;;;14.80;99.90;;;;;;5062258;28;20032;-75
2021/05/24 05:35:34;;;;;;;2.00;0.77;;;14.80;99.90;;;;;;5061477;28;20033;-74
2021/05/24 05:38:00;;;;;;;2.45;0.80;;;14.90;99.90;;;;;;5059890;28;20401;-73
2021/05/24 05:40:26;;;;;;;6.10;1.27;;;14.80;99.90;;;;;;5061278;28;20037;-74
2021/05/24 05:42:53;;;;;;;5.95;1.25;;;14.80;99.90;;;;;;5057243;28;20025;-72
2021/05/24 05:45:18;;;;;;;1.30;0.90;;;14.90;99.90;;;;;;5065606;28;20430;-72
2021/05/24 05:47:44;;;;;;;3.90;0.70;;;15.00;99.90;;;;;;5065735;28;20055;-71
2021/05/24 05:50:10;;;;;;;2.88;0.80;;;15.10;99.90;;;;;;5057317;28;20037;-70
2021/05/24 05:52:37;;;;;;;4.63;1.10;;;15.10;99.90;;;;;;5057432;28;20469;-72
2021/05/24 05:55:07;;;;;;;2.85;0.75;;;15.20;99.90;;;;;;5062156;28;20028;-71
2021/05/24 05:57:33;;;;;;;3.35;1.05;;;15.20;99.90;;;;;;5060345;28;20021;-72
2021/05/24 05:59:59;;;;;;;1.92;0.65;;;15.10;99.90;;;;;;5052607;28;20100;-72
2021/05/24 06:02:24;;;;;;;3.65;1.00;;;15.20;99.90;;;;;;5056043;28;20115;-71
2021/05/24 06:04:50;;;;;;;2.50;0.90;;;15.20;99.90;;;;;;5062061;28;20027;-72
2021/05/24 06:07:16;;;;;;;3.50;0.85;;;15.10;99.90;;;;;;5059506;28;20031;-71
2021/05/24 06:09:42;;;;;;;1.77;0.80;;;15.10;99.90;;;;;;5062525;28;20033;-71
2021/05/24 06:12:08;;;;;;;1.38;0.82;;;15.10;99.90;;;;;;5052532;28;20277;-71
2021/05/24 06:14:34;;;;;;;2.85;0.90;;;15.10;99.90;;;;;;5057812;28;20035;-71
2021/05/24 06:17:00;;;;;;;1.77;0.75;;;15.20;99.90;;;;;;5063365;28;20461;-72
2021/05/24 06:19:26;;;;;;;1.02;0.52;;;15.10;99.90;;;;;;5060017;28;20029;-71
2021/05/24 06:21:51;;;;;;;1.80;0.80;;;15.20;99.90;;;;;;5059192;28;20029;-71
2021/05/24 06:24:17;;;;;;;2.28;0.88;;;15.30;99.90;;;;;;5061053;28;20029;-71
2021/05/24 06:26:42;;;;;;;3.90;0.70;;;15.30;99.90;;;;;;5065589;28;20078;-71
2021/05/24 06:29:08;;;;;;;1.83;0.77;;;15.30;99.90;;;;;;5056499;28;20116;-71
2021/05/24 06:31:34;;;;;;;1.88;0.60;;;15.30;99.90;;;;;;5065308;28;20314;-71
2021/05/24 06:33:59;;;;;;;5.05;1.00;;;15.40;99.90;;;;;;5054090;28;20025;-71
2021/05/24 06:36:25;;;;;;;4.60;0.90;;;15.40;99.90;;;;;;5066797;28;20028;-71
2021/05/24 06:38:51;;;;;;;0.93;0.60;;;15.50;99.90;;;;;;5056287;28;20107;-71
2021/05/24 06:41:17;;;;;;;2.47;0.80;;;15.50;99.90;;;;;;5053789;28;20029;-71
2021/05/24 06:43:43;;;;;;;2.45;1.02;;;15.50;99.90;;;;;;5060104;28;20053;-71
2021/05/24 06:46:09;;;;;;;2.35;0.65;;;15.60;99.90;;;;;;5058031;28;20032;-71
2021/05/24 06:48:34;;;;;;;3.78;0.93;;;15.70;99.90;;;;;;5055239;28;20041;-71
2021/05/24 06:51:00;;;;;;;2.65;1.00;;;15.70;99.90;;;;;;5066433;28;20445;-71
2021/05/24 06:53:25;;;;;;;2.33;0.63;;;15.70;99.90;;;;;;5058590;28;20024;-71
2021/05/24 06:55:51;;;;;;;1.45;0.70;;;15.70;99.90;;;;;;5055704;28;20033;-71
2021/05/24 06:58:17;;;;;;;1.95;0.60;;;15.70;99.90;;;;;;5060854;28;20087;-71
2021/05/24 07:00:42;;;;;;;0.88;0.50;;;15.70;99.90;;;;;;5059129;28;20028;-71
2021/05/24 07:03:08;;;;;;;2.15;1.08;;;15.60;99.90;;;;;;5054404;28;20028;-71
2021/05/24 07:05:34;;;;;;;2.05;0.63;;;15.70;99.90;;;;;;5058427;28;20028;-71
2021/05/24 07:08:00;;;;;;;3.45;1.08;;;15.60;99.90;;;;;;5062153;28;20033;-72
2021/05/24 07:10:26;;;;;;;1.25;0.80;;;15.50;99.90;;;;;;5062504;28;20029;-71
2021/05/24 07:12:52;;;;;;;2.13;0.90;;;15.60;99.90;;;;;;5057153;28;20385;-71
2021/05/24 07:15:18;;;;;;;2.75;0.88;;;15.50;99.90;;;;;;5052668;28;20064;-71
2021/05/24 07:17:43;;;;;;;5.40;1.20;;;15.50;99.90;;;;;;5061068;28;20032;-71
2021/05/24 07:20:09;;;;;;;2.45;0.90;;;15.60;99.90;;;;;;5054792;28;20028;-71
2021/05/24 07:22:36;;;;;;;2.83;0.55;;;15.60;99.90;;;;;;5059636;28;20013;-72
2021/05/24 07:25:03;;;;;;;2.40;0.90;;;15.60;99.90;;;;;;5054314;28;20052;-72
2021/05/24 07:27:29;;;;;;;2.63;1.23;;;15.60;99.90;;;;;;5062043;28;20051;-72
2021/05/24 07:29:54;;;;;;;2.75;0.75;;;15.50;99.90;;;;;;5064013;28;20496;-73
2021/05/24 07:32:20;;;;;;;3.92;1.45;;;15.60;99.90;;;;;;5064650;28;20104;-73
2021/05/24 07:34:46;;;;;;;4.70;1.05;;;15.60;99.90;;;;;;5054546;28;20038;-73
2021/05/24 07:37:11;;;;;;;5.28;0.98;;;15.60;99.90;;;;;;5058637;28;20069;-72
2021/05/24 07:39:37;;;;;;;2.03;0.65;;;15.70;99.90;;;;;;5060983;28;20040;-75
2021/05/24 07:42:05;;;;;;;2.70;0.93;;;15.60;99.90;;;;;;5057651;28;20025;-72
2021/05/24 07:44:34;;;;;;;1.77;0.82;;;15.60;99.90;;;;;;5058783;28;20040;-73
2021/05/24 07:47:01;;;;;;;4.20;0.75;;;15.60;99.90;;;;;;5053687;28;20031;-72
2021/05/24 07:49:27;;;;;;;2.22;0.60;;;15.60;99.90;;;;;;5054340;28;20049;-72
2021/05/24 07:51:53;;;;;;;4.28;0.90;;;15.60;99.90;;;;;;5050650;28;20032;-72
2021/05/24 07:54:19;;;;;;;1.60;0.88;;;15.60;99.90;;;;;;5052144;28;20025;-71
2021/05/24 07:56:45;;;;;;;2.95;0.88;;;15.30;99.90;;;;;;5053018;28;20099;-77
2021/05/24 07:59:12;;;;;;;2.72;1.10;;;15.30;99.90;;;;;;5050319;28;20124;-72
2021/05/24 08:01:38;;;;;;;1.52;0.75;;;15.20;99.90;;;;;;5057952;28;20025;-74
2021/05/24 08:04:04;;;;;;;2.45;0.85;;;15.10;99.90;;;;;;5055204;28;21761;-73
2021/05/24 08:06:29;;;;;;;4.60;0.82;;;15.00;99.90;;;;;;5052474;28;20031;-72
2021/05/24 08:08:55;;;;;;;3.05;1.00;;;14.90;99.90;;;;;;5056442;28;20428;-72
2021/05/24 08:11:21;;;;;;;1.58;0.80;;;15.00;99.90;;;;;;5049877;28;20067;-73
2021/05/24 08:13:46;;;;;;;3.85;1.10;;;15.00;99.90;;;;;;5053471;28;20025;-73
2021/05/24 08:16:13;;;;;;;1.85;0.93;;;15.00;99.90;;;;;;5052190;28;20095;-72
2021/05/24 08:18:40;;;;;;;2.40;1.10;;;14.90;99.90;;;;;;5055088;28;20431;-72
2021/05/24 08:21:07;;;;;;;2.72;1.42;;;14.70;99.90;;;;;;5056156;28;20393;-73
2021/05/24 08:23:33;;;;;;;2.85;1.38;;;14.90;99.90;;;;;;5058387;28;20017;-72
2021/05/24 08:26:00;;;;;;;4.55;1.70;;;14.80;99.90;;;;;;5055112;28;20055;-72
2021/05/24 08:28:26;;;;;;;5.53;1.42;;;14.80;99.90;;;;;;5055709;28;20366;-72
2021/05/24 08:30:53;;;;;;;4.15;1.40;;;14.70;99.90;;;;;;5058377;28;20048;-72
2021/05/24 08:33:21;;;;;;;4.68;1.10;;;14.60;99.90;;;;;;5059552;28;20477;-73
2021/05/24 08:35:47;;;;;;;2.20;1.17;;;14.60;99.90;;;;;;5056911;28;20026;-73
2021/05/24 08:38:13;;;;;;;4.25;1.38;;;14.60;99.90;;;;;;5055262;28;20104;-73
2021/05/24 08:40:39;;;;;;;1.55;1.30;;;14.70;99.90;;;;;;5053308;28;20107;-73
2021/05/24 08:43:06;;;;;;;3.58;1.20;;;14.70;99.90;;;;;;5057166;28;20461;-73
2021/05/24 08:45:35;;;;;;;2.25;1.30;;;14.60;99.90;;;;;;5054858;28;20492;-71
2021/05/24 08:48:01;;;;;;;2.10;1.23;;;14.60;99.90;;;;;;5056993;28;20072;-71
2021/05/24 08:50:26;;;;;;;4.85;1.35;;;14.60;99.90;;;;;;5061205;28;20032;-72
2021/05/24 08:52:52;;;;;;;4.47;1.40;;;14.70;99.90;;;;;;5064179;28;20431;-73
2021/05/24 08:55:17;;;;;;;4.45;1.42;;;14.60;99.90;;;;;;5056952;28;20692;-73
2021/05/24 08:57:43;;;;;;;2.05;1.20;;;14.60;99.90;;;;;;5066976;28;20438;-71
2021/05/24 09:00:13;;;;;;;1.55;0.80;;;14.70;99.90;;;;;;5064754;28;20020;-72
2021/05/24 09:02:40;;;;;;;1.25;0.90;;;14.60;99.90;;;;;;5063351;28;20029;-74
2021/05/24 09:05:08;;;;;;;1.83;0.52;;;14.40;99.90;;;;;;5065023;28;20020;-72
2021/05/24 09:07:56;;;;;;;2.88;0.80;;;14.50;99.90;;;;;;5061289;28;20067;-73
2021/05/24 09:10:24;;;;;;;2.45;0.90;;;14.70;99.90;;;;;;5060713;28;20036;-75
2021/05/24 09:12:50;;;;;;;2.08;0.95;;;14.80;99.90;;;;;;5063936;28;21387;-71
2021/05/24 09:15:18;;;;;;;3.33;0.80;;;14.70;99.90;;;;;;5064962;28;20485;-72
2021/05/24 09:17:58;;;;;;;2.35;0.68;;;14.70;99.90;;;;;;5059868;28;20036;-73
2021/05/24 09:20:23;;;;;;;3.90;1.02;;;14.60;99.90;;;;;;5053589;28;20095;-71
2021/05/24 09:23:13;;;;;;;4.15;1.20;;;14.60;99.90;;;;;;5061584;28;20075;-70
2021/05/24 09:26:07;;;;;;;2.53;1.20;;;14.60;99.90;;;;;;5059434;28;20031;-71
2021/05/24 09:28:41;;;;;;;2.53;1.25;;;14.60;99.90;;;;;;5059108;28;20493;-71
2021/05/24 09:31:19;;;;;;;3.63;1.10;;;14.60;99.90;;;;;;5056306;28;20017;-73
2021/05/24 09:33:50;;;;;;;2.65;1.15;;;14.60;99.90;;;;;;5059231;28;20035;-73
2021/05/24 09:36:16;;;;;;;2.75;1.20;;;14.60;99.90;;;;;;5055096;28;20036;-73
2021/05/24 09:38:49;;;;;;;3.53;1.00;;;14.70;99.90;;;;;;5061315;28;20469;-72
2021/05/24 09:41:19;;;;;;;2.80;1.00;;;14.70;99.90;;;;;;5060808;28;20032;-74
2021/05/24 09:43:49;;;;;;;2.42;1.00;;;14.80;99.90;;;;;;5062249;28;20424;-73
2021/05/24 09:46:19;;;;;;;1.20;1.00;;;14.70;99.90;;;;;;5056068;28;20029;-72
2021/05/24 09:48:47;;;;;;;2.75;0.80;;;14.60;99.90;;;;;;5058051;28;20373;-73
2021/05/24 09:51:16;;;;;;;5.00;1.50;;;14.70;99.90;;;;;;5053938;28;20029;-74
2021/05/24 09:54:15;;;;;;;2.63;1.30;;;14.70;99.90;;;;;;5052666;28;20039;-75
2021/05/24 09:56:45;;;;;;;4.47;1.42;;;14.90;99.90;;;;;;5063281;28;20016;-74
2021/05/24 09:59:21;;;;;;;2.45;0.90;;;14.80;99.90;;;;;;5053891;28;20028;-74
2021/05/24 10:01:54;;;;;;;1.52;0.98;;;14.80;99.90;;;;;;5061357;28;20495;-74
2021/05/24 10:04:25;;;;;;;3.22;1.20;;;14.70;99.90;;;;;;5053596;28;20066;-75
2021/05/24 10:06:52;;;;;;;2.25;1.17;;;14.80;99.90;;;;;;5054244;28;20029;-74
2021/05/24 10:09:19;;;;;;;2.25;1.23;;;14.80;99.90;;;;;;5056736;28;20044;-74
2021/05/24 10:11:47;;;;;;;4.28;1.17;;;15.10;99.90;;;;;;5057631;28;20036;-73
2021/05/24 10:14:15;;;;;;;1.70;1.30;;;14.90;99.90;;;;;;5057163;28;20041;-74
2021/05/24 10:16:45;;;;;;;1.88;1.20;;;15.00;99.90;;;;;;5055896;28;20027;-74
2021/05/24 10:19:12;;;;;;;2.38;0.90;;;15.00;99.90;;;;;;5058085;28;20069;-75
2021/05/24 10:21:39;;;;;;;1.75;1.20;;;15.10;99.90;;;;;;5058536;28;20032;-73
2021/05/24 10:24:05;;;;;;;4.00;1.20;;;15.10;99.90;;;;;;5061482;28;20432;-74
2021/05/24 10:26:32;;;;;;;2.53;0.80;;;15.20;99.90;;;;;;5062122;28;20021;-74
2021/05/24 10:29:01;;;;;;;2.42;0.90;;;15.20;99.90;;;;;;5062663;28;20032;-74
2021/05/24 10:31:29;;;;;;;1.80;0.90;;;15.20;99.90;;;;;;5058976;28;20017;-74
2021/05/24 10:34:07;;;;;;;1.15;0.77;;;15.10;99.90;;;;;;5060062;28;20384;-75
2021/05/24 10:36:33;;;;;;;2.80;1.05;;;15.10;99.90;;;;;;5056578;28;20393;-74
2021/05/24 10:39:01;;;;;;;4.85;1.48;;;15.40;99.90;;;;;;5057935;28;20021;-73
2021/05/24 10:41:55;;;;;;;2.28;0.90;;;15.50;99.90;;;;;;5046486;28;20162;-75
2021/05/24 10:44:38;;;;;;;1.83;1.10;;;15.60;99.90;;;;;;5067190;28;20108;-76
2021/05/24 10:47:24;;;;;;;2.25;1.05;;;15.60;99.90;;;;;;5068193;28;20044;-74
2021/05/24 10:50:01;;;;;;;1.60;1.30;;;15.40;99.90;;;;;;5062214;28;20041;-75
2021/05/24 10:52:27;;;;;;;4.15;1.20;;;15.10;99.90;;;;;;5062141;28;20502;-74
2021/05/24 10:54:54;;;;;;;1.42;1.25;;;15.10;99.90;;;;;;5065214;28;20035;-75
2021/05/24 10:57:20;;;;;;;3.65;2.30;;;15.00;99.90;;;;;;5063883;28;20754;-73
2021/05/24 10:59:50;;;;;;;1.75;0.93;;;15.10;99.90;;;;;;5060130;28;20031;-76
2021/05/24 11:02:34;;;;;;;5.03;1.67;;;15.20;99.90;;;;;;5057468;28;20033;-76
2021/05/24 11:05:25;;;;;;;1.90;1.00;;;15.30;99.90;;;;;;5060748;28;20024;-76
2021/05/24 11:07:54;;;;;;;4.95;0.90;;;15.20;99.90;;;;;;5058556;28;20021;-74
2021/05/24 11:10:26;;;;;;;1.25;0.60;;;15.30;99.90;;;;;;5070431;28;20021;-76
2021/05/24 11:13:11;;;;;;;2.15;0.60;;;15.40;99.90;;;;;;5062244;28;20035;-77
2021/05/24 11:15:39;;;;;;;0.68;0.30;;;15.40;99.90;;;;;;5063478;28;20090;-76
2021/05/24 11:18:05;;;;;;;2.05;0.70;;;15.30;99.90;;;;;;5061601;28;20079;-75
2021/05/24 11:20:31;;;;;;;0.73;0.52;;;15.50;99.90;;;;;;5056755;28;20446;-75
2021/05/24 11:26:12;;;;;;;1.42;0.60;;;15.50;99.90;;;;;;5063103;28;20030;-75
2021/05/24 11:28:42;;;;;;;0.50;0.50;;;15.50;99.90;;;;;;5065299;28;20397;-76
2021/05/24 11:31:12;;;;;;;1.60;0.60;;;15.70;99.90;;;;;;5054551;28;20101;-74
2021/05/24 11:33:48;;;;;;;1.17;0.63;;;15.70;99.90;;;;;;5059445;28;20547;-75
2021/05/24 11:36:15;;;;;;;1.08;0.73;;;15.70;99.90;;;;;;5061258;28;20025;-75
2021/05/24 11:38:59;;;;;;;0.60;0.50;;;15.80;99.90;;;;;;5066326;28;20033;-75
2021/05/24 11:41:29;;;;;;;1.20;0.63;;;15.90;99.90;;;;;;5058452;28;20032;-75
2021/05/24 11:43:55;;;;;;;1.40;0.40;;;15.80;99.90;;;;;;5057366;28;20036;-75
2021/05/24 11:46:21;;;;;;;0.30;0.30;;;15.80;99.90;;;;;;5066440;28;20028;-75
2021/05/24 11:48:49;;;;;;;1.33;0.50;;;15.60;99.90;;;;;;5062613;28;20043;-74
2021/05/24 11:51:16;;;;;;;1.05;0.50;;;15.50;99.90;;;;;;5059861;28;20028;-75
2021/05/24 11:54:04;;;;;;;0.82;0.32;;;15.30;99.90;;;;;;5062019;28;20032;-75
2021/05/24 11:56:43;;;;;;;0.85;0.52;;;15.20;99.90;;;;;;5067994;28;20052;-74
2021/05/24 11:59:11;;;;;;;0.40;0.40;;;15.10;99.90;;;;;;5064117;28;20009;-75
2021/05/24 12:01:38;;;;;;;1.00;0.57;;;14.90;99.90;;;;;;5059890;28;20033;-73
2021/05/24 12:04:12;;;;;;;1.60;0.82;;;14.80;99.90;;;;;;5063438;28;20063;-75
2021/05/24 12:06:53;;;;;;;1.90;0.70;;;14.70;99.90;;;;;;5053976;28;20120;-75
2021/05/24 12:09:38;;;;;;;2.53;0.85;;;14.70;99.90;;;;;;5062618;28;20029;-75
2021/05/24 12:12:16;;;;;;;1.60;0.95;;;14.60;99.90;;;;;;5063055;28;20021;-74
2021/05/24 12:14:59;;;;;;;1.48;1.02;;;14.60;99.90;;;;;;5061592;28;20111;-74
2021/05/24 12:17:27;;;;;;;3.05;0.90;;;14.70;99.90;;;;;;5062137;28;20104;-74
2021/05/24 12:19:54;;;;;;;0.90;0.90;;;14.70;99.90;;;;;;5059938;28;20024;-74
2021/05/24 12:22:26;;;;;;;4.55;0.77;;;14.80;99.90;;;;;;5062327;28;20115;-75
2021/05/24 12:24:54;;;;;;;1.70;0.80;;;15.00;99.90;;;;;;5059898;28;20103;-74
2021/05/24 12:27:22;;;;;;;1.45;1.35;;;14.90;99.90;;;;;;5060905;28;20278;-75
2021/05/24 12:29:50;;;;;;;1.15;0.85;;;15.10;99.90;;;;;;5061571;28;20044;-74
2021/05/24 12:32:48;;;;;;;1.88;1.25;;;15.20;99.90;;;;;;5071013;28;20024;-74
2021/05/24 12:35:38;;;;;;;0.95;0.95;;;15.20;99.90;;;;;;5058436;28;20132;-74
2021/05/24 12:38:17;;;;;;;1.33;0.80;;;15.40;99.90;;;;;;5062697;28;20033;-73
2021/05/24 12:40:43;;;;;;;1.42;0.93;;;15.30;99.90;;;;;;5062106;28;20087;-72
2021/05/24 12:43:10;;;;;;;2.38;1.13;;;15.40;99.90;;;;;;5058932;28;20028;-73
2021/05/24 12:45:35;;;;;;;2.05;0.70;;;15.40;99.90;;;;;;5071047;28;20616;-73
2021/05/24 12:48:24;;;;;;;1.25;0.65;;;15.30;99.90;;;;;;5059944;28;20028;-73
2021/05/24 12:50:50;;;;;;;0.82;0.60;;;15.20;99.90;;;;;;5061682;28;20033;-74
2021/05/24 12:53:21;;;;;;;3.47;0.85;;;15.10;99.90;;;;;;5066719;28;20458;-72
2021/05/24 12:55:48;;;;;;;1.20;0.70;;;15.20;99.90;;;;;;5062175;28;20091;-73